Data for 12/07/2005

Time Sea-Level Adjusted Pressure Absolute Pressure Temperature Relative Humidity Dew Point   
(mb) (inHg) (mb) (inHg) (C) (F) (%) (C) (F)
00:05 1026 30.3 855 25.25 -21.8 -7.2 75 -25 -13.1
00:10 1026 30.3 855 25.25 -21.7 -7.1 76 -24.9 -12.9
00:15 1026 30.3 855 25.25 -21.6 -6.8 75 -24.9 -12.8
00:20 1026 30.3 855 25.25 -21.7 -7 76 -24.8 -12.6
00:25 1026 30.3 855 25.25 -21.8 -7.2 76 -24.9 -12.8
00:30 1025 30.27 855 25.25 -21.7 -7 78 -24.5 -12.2
00:35 1025 30.27 855 25.25 -21.5 -6.7 75 -24.8 -12.6
00:40 1025 30.27 855 25.25 -21.4 -6.5 77 -24.4 -11.9
00:45 1025 30.27 855 25.25 -20.9 -5.6 75 -24.3 -11.7
00:50 1025 30.27 855 25.25 -20.6 -5.1 74 -24.2 -11.5
00:55 1026 30.3 855 25.25 -20.8 -5.4 73 -24.4 -11.9
01:00 1026 30.3 855 25.25 -21.3 -6.3 75 -24.6 -12.3
01:05 1026 30.3 855 25.25 -21.6 -6.8 76 -24.8 -12.6
01:10 1026 30.3 855 25.25 -21.6 -6.8 74 -25 -13.1
01:15 1026 30.3 855 25.25 -21.8 -7.2 73 -25.4 -13.6
01:20 1026 30.3 855 25.25 -22 -7.6 77 -25 -13
01:25 1026 30.3 855 25.25 -22 -7.6 76 -25.2 -13.4
01:30 1026 30.3 855 25.25 -22.3 -8.1 77 -25.2 -13.4
01:35 1026 30.3 855 25.25 -22.3 -8.1 78 -25.1 -13.3
01:40 1026 30.3 855 25.25 -22.1 -7.7 78 -25 -12.9
01:45 1026 30.3 855 25.25 -21.8 -7.3 75 -25.2 -13.4
01:50 1026 30.3 855 25.25 -22.2 -8 72 -25.9 -14.7
01:55 1026 30.3 855 25.25 -23.2 -9.7 76 -26.3 -15.3
02:00 1025 30.27 855 25.25 -23.3 -9.9 80 -25.8 -14.5
02:05 1026 30.3 855 25.25 -22.2 -8 77 -25.3 -13.5
02:10 1025 30.27 855 25.25 -21.7 -7 74 -25.2 -13.3
02:15 1025 30.27 855 25.25 -21.8 -7.2 76 -24.9 -12.8
02:20 1025 30.27 855 25.25 -22.1 -7.7 75 -25.3 -13.6
02:25 1025 30.27 855 25.25 -22.6 -8.7 77 -25.6 -14
02:30 1025 30.27 855 25.25 -22.9 -9.2 79 -25.7 -14.2
02:35 1025 30.27 855 25.25 -22.9 -9.1 79 -25.6 -14.1
02:40 1025 30.27 855 25.25 -22.9 -9.1 78 -25.6 -14.1
02:45 1025 30.27 855 25.25 -22.9 -9.2 79 -25.6 -14.2
02:50 1025 30.27 855 25.25 -22.7 -8.9 79 -25.5 -13.9
02:55 1025 30.27 855 25.25 -22.6 -8.6 77 -25.5 -13.9
03:00 1025 30.27 855 25.25 -22.6 -8.8 78 -25.5 -13.9
03:05 1026 30.3 855 25.25 -22.8 -9.1 78 -25.7 -14.2
03:10 1026 30.3 855 25.25 -22.9 -9.3 79 -25.7 -14.2
03:15 1026 30.3 855 25.25 -22.7 -8.9 78 -25.5 -14
03:20 1026 30.3 855 25.25 -22.6 -8.7 78 -25.4 -13.8
03:25 1026 30.3 855 25.25 -22.6 -8.7 79 -25.2 -13.4
03:30 1026 30.3 855 25.25 -22.6 -8.6 79 -25.3 -13.6
03:35 1025 30.27 855 25.25 -22.6 -8.6 76 -25.8 -14.4
03:40 1025 30.27 855 25.25 -22.4 -8.3 79 -25.1 -13.1
03:45 1025 30.27 855 25.25 -21.7 -7 74 -25.1 -13.2
03:50 1025 30.27 855 25.25 -22.4 -8.2 79 -25.1 -13.2
03:55 1025 30.27 855 25.25 -22.1 -7.7 78 -25 -13
04:00 1025 30.27 855 25.25 -21.6 -6.9 76 -24.9 -12.7
04:05 1025 30.27 855 25.25 -22 -7.6 75 -25.2 -13.4
04:10 1025 30.27 855 25.25 -22.2 -7.9 77 -25.2 -13.4
04:15 1025 30.27 855 25.25 -22.2 -8 75 -25.5 -13.9
04:20 1025 30.27 855 25.25 -22.6 -8.7 76 -25.8 -14.4
04:25 1025 30.27 855 25.25 -22.9 -9.3 76 -26 -14.8
04:30 1025 30.27 855 25.25 -23.1 -9.5 76 -26.2 -15.1
04:35 1025 30.27 855 25.25 -22.9 -9.2 76 -26 -14.9
04:40 1025 30.27 855 25.25 -22.9 -9.2 78 -25.7 -14.3
04:45 1025 30.27 855 25.25 -22.5 -8.4 77 -25.5 -13.8
04:50 1025 30.27 855 25.25 -22.5 -8.4 76 -25.6 -14
04:55 1025 30.27 855 25.25 -22.7 -8.9 77 -25.6 -14.1
05:00 1025 30.27 855 25.25 -22.6 -8.8 77 -25.6 -14.1
05:05 1025 30.27 855 25.25 -22.5 -8.5 77 -25.5 -13.9
05:10 1025 30.27 855 25.25 -22.3 -8.2 77 -25.3 -13.6
05:15 1025 30.27 855 25.25 -22.4 -8.3 76 -25.5 -13.9
05:20 1025 30.27 855 25.25 -22.8 -9.1 76 -26 -14.7
05:25 1025 30.27 855 25.25 -23.2 -9.7 79 -25.9 -14.6
05:30 1025 30.27 855 25.25 -23 -9.5 78 -25.9 -14.6
05:35 1025 30.27 855 25.25 -23.1 -9.7 79 -25.9 -14.6
05:40 1026 30.3 855 25.25 -23.1 -9.5 77 -26.1 -14.9
05:45 1026 30.3 855 25.25 -23.4 -10 77 -26.3 -15.4
05:50 1026 30.3 855 25.25 -23.5 -10.4 78 -26.3 -15.4
05:55 1026 30.3 855 25.25 -23.4 -10 78 -26.3 -15.3
06:00 1026 30.3 855 25.25 -23.3 -9.9 77 -26.2 -15.2
06:05 1026 30.3 855 25.25 -23.1 -9.6 77 -26 -14.9
06:10 1026 30.3 855 25.25 -23.1 -9.6 77 -26.1 -14.9
06:15 1026 30.3 855 25.25 -22.9 -9.3 77 -26 -14.8
06:20 1026 30.3 855 25.25 -22.8 -9 76 -25.9 -14.7
06:25 1026 30.3 855 25.25 -23 -9.4 77 -26.1 -14.9
06:30 1026 30.3 855 25.25 -23.1 -9.5 77 -26 -14.9
06:35 1026 30.3 855 25.25 -23.1 -9.5 77 -26.1 -15
06:40 1026 30.3 855 25.25 -23.1 -9.6 77 -26.1 -15
06:45 1025 30.27 855 25.25 -23.3 -10 77 -26.3 -15.3
06:50 1025 30.27 855 25.25 -23.4 -10.1 78 -26.2 -15.2
06:55 1025 30.27 854 25.22 -23.3 -9.9 77 -26.3 -15.3
07:00 1025 30.27 854 25.22 -23.7 -10.7 78 -26.6 -15.8
07:05 1025 30.27 854 25.22 -23.6 -10.5 78 -26.4 -15.5
07:10 1025 30.27 854 25.22 -23.2 -9.8 78 -26 -14.8
07:15 1025 30.27 854 25.22 -22.9 -9.2 77 -25.8 -14.5
07:20 1025 30.27 854 25.22 -22.8 -9.1 77 -25.8 -14.4
07:25 1025 30.27 854 25.22 -23 -9.3 77 -25.9 -14.7
07:30 1025 30.27 854 25.22 -23.3 -9.9 77 -26.2 -15.1
07:35 1025 30.27 854 25.22 -23.4 -10.1 78 -26.3 -15.3
07:40 1025 30.27 854 25.22 -23.5 -10.3 78 -26.4 -15.5
07:45 1025 30.27 854 25.22 -23.6 -10.5 78 -26.5 -15.6
07:50 1025 30.27 854 25.22 -23.4 -10.1 77 -26.3 -15.3
07:55 1025 30.27 854 25.22 -23.2 -9.8 76 -26.3 -15.4
08:00 1025 30.27 854 25.22 -23.3 -9.9 77 -26.2 -15.2
08:05 1025 30.27 854 25.22 -23.3 -9.9 77 -26.3 -15.3
08:10 1025 30.27 854 25.22 -23.3 -9.9 77 -26.2 -15.2
08:15 1025 30.27 854 25.22 -23.2 -9.7 77 -26.2 -15.2
08:20 1025 30.27 854 25.22 -22.7 -8.9 75 -26 -14.8
08:25 1025 30.27 854 25.22 -22.4 -8.3 74 -25.8 -14.5
08:30 1025 30.27 854 25.22 -21.8 -7.2 73 -25.4 -13.8
08:35 1025 30.27 854 25.22 -20.8 -5.5 69 -25.1 -13.2
08:40 1025 30.27 854 25.22 -20.5 -5 69 -24.9 -12.8
08:45 1025 30.27 854 25.22 -20.8 -5.4 68 -25.2 -13.3
08:50 1025 30.27 854 25.22 -20.7 -5.2 67 -25.3 -13.5
08:55 1025 30.27 854 25.22 -20.5 -4.9 66 -25.2 -13.4
09:00 1025 30.27 854 25.22 -20.4 -4.7 66 -25.2 -13.3
09:05 1025 30.27 854 25.22 -20.2 -4.3 66 -24.9 -12.9
09:10 1025 30.27 854 25.22 -19.5 -3.2 64 -24.7 -12.4
09:15 1025 30.27 854 25.22 -18.9 -1.9 64 -24.2 -11.5
09:20 1025 30.27 854 25.22 -18.3 -1 62 -24 -11.2
09:25 1025 30.27 854 25.22 -18.7 -1.7 63 -24.1 -11.4
09:30 1025 30.27 854 25.22 -19.5 -3 65 -24.5 -12.1
09:35 1025 30.27 854 25.22 -19.5 -3 65 -24.4 -12
09:40 1025 30.27 854 25.22 -19.6 -3.3 66 -24.4 -12
09:45 1025 30.27 854 25.22 -19.1 -2.3 67 -23.7 -10.7
09:50 1025 30.27 854 25.22 -19.1 -2.4 65 -24.1 -11.4
09:55 1025 30.27 855 25.25 -19.6 -3.2 69 -23.8 -10.9
10:00 1025 30.27 855 25.25 -19.3 -2.8 70 -23.6 -10.4
10:05 1026 30.3 855 25.25 -18.9 -2 68 -23.5 -10.3
10:10 1026 30.3 855 25.25 -19 -2.3 67 -23.7 -10.7
10:15 1026 30.3 855 25.25 -19.5 -3.1 70 -23.6 -10.6
10:20 1025 30.27 855 25.25 -19.2 -2.6 69 -23.6 -10.5
10:25 1025 30.27 855 25.25 -19 -2.2 67 -23.7 -10.6
10:30 1025 30.27 855 25.25 -18.2 -0.7 63 -23.5 -10.4
10:35 1025 30.27 854 25.22 -17.8 0.1 62 -23.3 -10
10:40 1025 30.27 854 25.22 -18.5 -1.2 66 -23.4 -10
10:45 1025 30.27 854 25.22 -18 -0.4 64 -23.3 -9.9
10:50 1025 30.27 854 25.22 -17.6 0.4 63 -23 -9.4
10:55 1025 30.27 854 25.22 -17.4 0.6 63 -22.8 -9.1
11:00 1025 30.27 854 25.22 -17.5 0.4 63 -23 -9.3
11:05 1025 30.27 854 25.22 -17.6 0.3 64 -22.9 -9.2
11:10 1025 30.27 854 25.22 -17.4 0.6 62 -23.1 -9.5
11:15 1025 30.27 854 25.22 -17.2 1 60 -23.2 -9.8
11:20 1025 30.27 854 25.22 -16.8 1.8 60 -22.8 -9.1
11:25 1025 30.27 854 25.22 -16.2 2.9 58 -22.6 -8.6
11:30 1025 30.27 854 25.22 -16.5 2.3 61 -22.3 -8.2
11:35 1025 30.27 854 25.22 -16 3.3 58 -22.4 -8.4
11:40 1025 30.27 854 25.22 -15.4 4.4 56 -22.3 -8.2
11:45 1025 30.27 854 25.22 -15.4 4.3 58 -21.9 -7.4
11:50 1025 30.27 854 25.22 -15.9 3.4 58 -22.3 -8.2
11:55 1025 30.27 854 25.22 -17 1.4 64 -22.4 -8.2
12:00 1025 30.27 854 25.22 -17.8 -0.1 66 -22.7 -8.9
12:05 1025 30.27 854 25.22 -17.5 0.6 63 -22.9 -9.3
12:10 1024 30.24 854 25.22 -16.9 1.6 61 -22.7 -8.8
12:15 1024 30.24 854 25.22 -17 1.4 60 -23.1 -9.6
12:20 1024 30.24 853 25.19 -17.2 1 63 -22.7 -8.9
12:25 1024 30.24 853 25.19 -16.8 1.8 61 -22.6 -8.7
12:30 1024 30.24 853 25.19 -16.9 1.6 62 -22.6 -8.7
12:35 1024 30.24 853 25.19 -16.5 2.3 60 -22.5 -8.5
12:40 1024 30.24 853 25.19 -16.3 2.7 59 -22.5 -8.5
12:45 1024 30.24 853 25.19 -16.2 2.9 60 -22.3 -8.1
12:50 1024 30.24 853 25.19 -16.1 3 60 -22.2 -8
12:55 1024 30.24 853 25.19 -16.1 2.9 59 -22.4 -8.3
13:00 1024 30.24 853 25.19 -15.9 3.4 59 -22.2 -8
13:05 1024 30.24 853 25.19 -15.5 4.1 58 -22.1 -7.7
13:10 1024 30.24 853 25.19 -15.5 4.2 57 -22.2 -8
13:15 1024 30.24 853 25.19 -15.8 3.6 60 -22 -7.5
13:20 1024 30.24 853 25.19 -15.3 4.5 56 -22.2 -8
13:25 1024 30.24 853 25.19 -15 5 55 -22.2 -8
13:30 1023 30.21 853 25.19 -14.6 5.7 54 -22.1 -7.7
13:35 1023 30.21 853 25.19 -14.8 5.5 56 -21.7 -7
13:40 1023 30.21 853 25.19 -14.8 5.4 56 -21.7 -7.1
13:45 1023 30.21 853 25.19 -14.8 5.4 54 -22.1 -7.7
13:50 1023 30.21 853 25.19 -14.6 5.8 54 -22.1 -7.7
13:55 1023 30.21 853 25.19 -14.6 5.8 53 -22.1 -7.8
14:00 1023 30.21 853 25.19 -14.9 5.3 56 -21.7 -7.1
14:05 1023 30.21 853 25.19 -15.1 4.8 56 -22.1 -7.8
14:10 1023 30.21 853 25.19 -14.9 5.2 55 -22.1 -7.8
14:15 1023 30.21 852 25.16 -14.7 5.5 53 -22.4 -8.3
14:20 1023 30.21 852 25.16 -14.8 5.5 55 -21.9 -7.3
14:25 1023 30.21 852 25.16 -14.7 5.5 54 -22.2 -7.9
14:30 1023 30.21 852 25.16 -15 4.9 55 -22.1 -7.9
14:35 1023 30.21 852 25.16 -16 3.2 58 -22.5 -8.5
14:40 1023 30.21 852 25.16 -16.1 3.1 58 -22.5 -8.6
14:45 1023 30.21 852 25.16 -15.5 4.1 55 -22.5 -8.6
14:50 1023 30.21 852 25.16 -14.8 5.4 54 -22.2 -7.9
14:55 1023 30.21 852 25.16 -14.5 5.9 53 -22 -7.7
15:00 1023 30.21 852 25.16 -14 6.7 52 -21.9 -7.4
15:05 1023 30.21 852 25.16 -14 6.9 51 -22 -7.5
15:10 1023 30.21 852 25.16 -15 5.1 55 -22.2 -8
15:15 1023 30.21 852 25.16 -15.3 4.5 54 -22.7 -8.8
15:20 1023 30.21 852 25.16 -14.8 5.3 54 -22.2 -8
15:25 1023 30.21 852 25.16 -14.7 5.5 54 -22 -7.6
15:30 1023 30.21 852 25.16 -15.1 4.7 55 -22.4 -8.2
15:35 1023 30.21 852 25.16 -15.8 3.5 59 -22.2 -7.9
15:40 1023 30.21 852 25.16 -15.9 3.5 58 -22.4 -8.3
15:45 1023 30.21 852 25.16 -15.6 3.9 57 -22.3 -8.1
15:50 1023 30.21 852 25.16 -15.9 3.5 58 -22.3 -8.2
15:55 1023 30.21 852 25.16 -16.3 2.6 59 -22.5 -8.6
16:00 1023 30.21 852 25.16 -16.6 2.1 60 -22.7 -8.8
16:05 1023 30.21 852 25.16 -16.3 2.6 60 -22.4 -8.4
16:10 1023 30.21 852 25.16 -16.1 3 60 -22.2 -7.9
16:15 1023 30.21 852 25.16 -16.2 2.8 60 -22.2 -8
16:20 1023 30.21 852 25.16 -17 1.5 63 -22.4 -8.4
16:25 1023 30.21 852 25.16 -17.5 0.5 65 -22.5 -8.5
16:30 1023 30.21 852 25.16 -17.7 0.2 66 -22.6 -8.6
16:35 1023 30.21 852 25.16 -18 -0.5 68 -22.6 -8.7
16:40 1023 30.21 852 25.16 -18.4 -1.1 70 -22.5 -8.5
16:45 1023 30.21 852 25.16 -18.6 -1.5 72 -22.4 -8.4
16:50 1023 30.21 852 25.16 -18.9 -2 73 -22.6 -8.8
16:55 1023 30.21 852 25.16 -19.5 -3.1 74 -23 -9.4
17:00 1023 30.21 852 25.16 -19.8 -3.6 75 -23.2 -9.7
17:05 1023 30.21 852 25.16 -19.9 -3.7 77 -23 -9.4
17:10 1023 30.21 852 25.16 -19.9 -3.8 78 -22.9 -9.2
17:15 1023 30.21 852 25.16 -19.9 -3.7 78 -22.7 -8.9
17:20 1023 30.21 852 25.16 -20.1 -4.1 79 -22.8 -9.1
17:25 1023 30.21 852 25.16 -20.2 -4.4 79 -22.9 -9.2
17:30 1023 30.21 852 25.16 -20.5 -4.9 79 -23.2 -9.8
17:35 1023 30.21 852 25.16 -20.7 -5.2 78 -23.6 -10.4
17:40 1023 30.21 852 25.16 -21 -5.9 78 -23.9 -10.9
17:45 1023 30.21 852 25.16 -21.4 -6.5 81 -23.9 -10.9
17:50 1023 30.21 852 25.16 -21.3 -6.3 81 -23.8 -10.8
17:55 1023 30.21 852 25.16 -21.2 -6.1 80 -23.7 -10.7
18:00 1023 30.21 852 25.16 -21.2 -6.1 80 -23.8 -10.8
18:05 1023 30.21 852 25.16 -21 -5.9 80 -23.7 -10.6
18:10 1022 30.18 852 25.16 -21.4 -6.5 81 -23.8 -10.8
18:15 1022 30.18 852 25.16 -21.2 -6.2 80 -23.8 -10.8
18:20 1022 30.18 852 25.16 -20.7 -5.2 78 -23.6 -10.5
18:25 1022 30.18 851 25.13 -20.4 -4.6 76 -23.5 -10.4
18:30 1022 30.18 851 25.13 -20.4 -4.7 75 -23.7 -10.7
18:35 1022 30.18 851 25.13 -20.6 -5.1 76 -23.8 -10.9
18:40 1022 30.18 851 25.13 -20.7 -5.2 77 -23.7 -10.7
18:45 1022 30.18 851 25.13 -20.5 -4.8 77 -23.5 -10.3
18:50 1022 30.18 851 25.13 -20.4 -4.7 77 -23.4 -10.2
18:55 1022 30.18 851 25.13 -20.6 -5 78 -23.5 -10.2
19:00 1022 30.18 851 25.13 -20.7 -5.2 78 -23.6 -10.5
19:05 1022 30.18 851 25.13 -20.6 -5 79 -23.3 -10
19:10 1022 30.18 851 25.13 -20.3 -4.6 79 -23.1 -9.6
19:15 1022 30.18 851 25.13 -20.3 -4.5 77 -23.3 -9.9
19:20 1022 30.18 851 25.13 -20.2 -4.4 77 -23.3 -9.9
19:25 1022 30.18 851 25.13 -20.2 -4.4 77 -23.3 -9.9
19:30 1022 30.18 851 25.13 -20.2 -4.4 77 -23.3 -9.9
19:35 1022 30.18 851 25.13 -20.1 -4.1 76 -23.2 -9.8
19:40 1022 30.18 851 25.13 -20 -3.9 76 -23.2 -9.7
19:45 1022 30.18 851 25.13 -20 -3.9 77 -23.1 -9.6
19:50 1022 30.18 851 25.13 -19.7 -3.5 76 -22.9 -9.3
19:55 1022 30.18 851 25.13 -19.4 -3 75 -22.8 -9
20:00 1022 30.18 851 25.13 -19.3 -2.7 75 -22.7 -8.9
20:05 1022 30.18 851 25.13 -19 -2.3 74 -22.6 -8.6
20:10 1022 30.18 851 25.13 -19.1 -2.3 74 -22.7 -8.8
20:15 1022 30.18 851 25.13 -19.4 -2.9 75 -22.7 -8.9
20:20 1022 30.18 851 25.13 -19.7 -3.5 76 -22.9 -9.3
20:25 1022 30.18 851 25.13 -20.3 -4.5 79 -23.1 -9.6
20:30 1022 30.18 851 25.13 -20.3 -4.5 78 -23.2 -9.7
20:35 1022 30.18 851 25.13 -20.3 -4.6 81 -22.9 -9.2
20:40 1021 30.15 851 25.13 -20 -4.1 80 -22.7 -8.8
20:45 1022 30.18 851 25.13 -19.9 -3.9 78 -22.8 -9
20:50 1022 30.18 851 25.13 -20.1 -4.2 78 -23 -9.3
20:55 1022 30.18 851 25.13 -20.3 -4.5 78 -23.2 -9.7
21:00 1022 30.18 851 25.13 -20.3 -4.5 77 -23.3 -9.9
21:05 1022 30.18 851 25.13 -20.4 -4.6 78 -23.3 -9.9
21:10 1022 30.18 851 25.13 -20.6 -5 78 -23.5 -10.3
21:15 1022 30.18 851 25.13 -20.6 -5.1 80 -23.3 -9.9
21:20 1022 30.18 851 25.13 -20.9 -5.5 81 -23.3 -9.9
21:25 1022 30.18 851 25.13 -20.8 -5.4 81 -23.3 -10
21:30 1022 30.18 851 25.13 -20.6 -5.1 80 -23.1 -9.7
21:35 1021 30.15 851 25.13 -20.3 -4.5 80 -22.9 -9.2
21:40 1021 30.15 851 25.13 -20 -4 80 -22.6 -8.7
21:45 1021 30.15 851 25.13 -20 -4 80 -22.6 -8.6
21:50 1021 30.15 851 25.13 -20.3 -4.5 80 -22.8 -9.1
21:55 1021 30.15 851 25.13 -20.3 -4.5 81 -22.8 -9.1
22:00 1021 30.15 851 25.13 -19.9 -3.8 80 -22.4 -8.4
22:05 1021 30.15 851 25.13 -19.9 -3.8 78 -22.8 -9
22:10 1021 30.15 851 25.13 -20.4 -4.6 79 -23.1 -9.6
22:15 1021 30.15 850 25.1 -20.7 -5.3 80 -23.3 -9.9
22:20 1021 30.15 850 25.1 -20.7 -5.2 82 -23 -9.3
22:25 1021 30.15 850 25.1 -20.1 -4.2 81 -22.6 -8.6
22:30 1021 30.15 850 25.1 -19.7 -3.4 79 -22.4 -8.4
22:35 1021 30.15 850 25.1 -19.7 -3.5 78 -22.6 -8.7
22:40 1021 30.15 850 25.1 -19.9 -3.8 79 -22.6 -8.7
22:45 1021 30.15 850 25.1 -20 -4.1 79 -22.7 -8.9
22:50 1021 30.15 850 25.1 -20.4 -4.6 80 -23 -9.3
22:55 1021 30.15 851 25.13 -20.5 -4.9 81 -23 -9.5
23:00 1021 30.15 851 25.13 -20.2 -4.4 80 -22.8 -9
23:05 1022 30.18 851 25.13 -19.6 -3.2 79 -22.3 -8.2
23:10 1022 30.18 851 25.13 -19.2 -2.5 78 -22.1 -7.7
23:15 1022 30.18 851 25.13 -18.9 -2 77 -21.9 -7.5
23:20 1022 30.18 851 25.13 -18.8 -1.9 77 -22 -7.5
23:25 1022 30.18 851 25.13 -19.5 -3.1 78 -22.4 -8.4
23:30 1022 30.18 851 25.13 -19.8 -3.7 79 -22.6 -8.7
23:35 1022 30.18 851 25.13 -19.4 -2.9 76 -22.6 -8.7
23:40 1022 30.18 851 25.13 -19.6 -3.2 79 -22.3 -8.1
23:45 1022 30.18 851 25.13 -19.1 -2.3 76 -22.3 -8.2
23:50 1022 30.18 851 25.13 -19.3 -2.8 76 -22.5 -8.6
23:55 1022 30.18 851 25.13 -19.6 -3.2 76 -22.8 -9.1
24:00 1022 30.18 851 25.13 -20.1 -4.3 76 -23.3 -10